createdAt,value
2023-05-10T00:13:16.877Z,6.40
2023-05-10T00:50:36.545Z,3.70
2023-05-10T01:27:59.934Z,4.70
2023-05-10T01:46:34.449Z,5.30
2023-05-10T02:05:15.672Z,2.10
2023-05-10T02:23:51.113Z,6.20
2023-05-10T02:42:30.827Z,8.80
2023-05-10T03:01:10.247Z,3.50
2023-05-10T03:38:31.318Z,3.60
2023-05-10T03:57:09.513Z,4.20
2023-05-10T04:15:48.391Z,2.30
2023-05-10T04:34:28.231Z,5.10
2023-05-10T04:53:08.971Z,3.40
2023-05-10T05:30:29.390Z,3.70
2023-05-10T06:26:33.126Z,3.40
2023-05-10T06:45:15.436Z,3.70
2023-05-10T07:03:53.371Z,2.70
2023-05-10T07:22:35.540Z,5.80
2023-05-10T07:41:24.950Z,3.70
2023-05-10T08:00:00.955Z,4.30
2023-05-10T08:18:41.485Z,4.20
2023-05-10T08:56:02.625Z,2.80
2023-05-10T09:14:42.976Z,2.70
2023-05-10T09:33:22.423Z,2.60
2023-05-10T09:52:01.653Z,3.40
2023-05-10T10:10:40.601Z,2.60
2023-05-10T10:29:21.892Z,3.40
2023-05-10T10:48:01.730Z,7.30
2023-05-10T11:06:40.661Z,2.10
2023-05-10T11:25:17.490Z,2.70
2023-05-10T12:21:22.175Z,3.50
2023-05-10T12:39:57.033Z,3.60
2023-05-10T12:58:38.175Z,1.80
2023-05-10T13:17:12.217Z,1.60
2023-05-10T13:35:48.833Z,3.30
2023-05-10T13:54:27.059Z,4.30
2023-05-10T14:31:41.498Z,1.90
2023-05-10T14:50:35.050Z,2.80
2023-05-10T15:08:57.063Z,3.70
2023-05-10T15:27:35.401Z,4.20
2023-05-10T15:46:14.289Z,3.30
2023-05-10T16:04:51.180Z,2.70
2023-05-10T16:42:07.158Z,6.80
2023-05-10T17:00:45.473Z,2.60
2023-05-10T17:38:00.202Z,19.10
2023-05-10T17:56:38.257Z,10.30
2023-05-10T18:15:14.078Z,11.40
2023-05-10T18:33:54.007Z,14.80
2023-05-10T18:52:31.012Z,8.10
2023-05-10T19:11:10.776Z,9.20
2023-05-10T19:48:28.435Z,10.40
2023-05-10T20:07:08.560Z,10.00
2023-05-10T20:25:48.167Z,10.50
2023-05-10T20:44:26.662Z,12.30
2023-05-10T21:03:06.602Z,15.50
2023-05-10T21:21:44.508Z,17.40
2023-05-10T21:40:25.382Z,15.30
2023-05-10T22:17:43.639Z,15.10
2023-05-10T22:36:22.475Z,10.90
2023-05-10T22:55:01.773Z,12.60
2023-05-10T23:13:40.213Z,10.50
2023-05-10T23:32:19.364Z,8.20
2023-05-10T23:50:58.300Z,8.20
